Time;durP1;ratioP1;P1;durP2;ratioP2;P2;SDS_P1;SDS_P2;PMS_P1;PMS_P2;Temp;Humidity;BMP_temperature;BMP_pressure;BME280_temperature;BME280_humidity;BME280_pressure;Samples;Min_cycle;Max_cycle;Signal;HPM_P1;HPM_P2
2022/08/27 00:02:24;;;;;;;9.57;2.13;;;21.20;92.90;;;;;;5128320;27;20212;-38
2022/08/27 00:04:51;;;;;;;3.88;1.88;;;21.10;93.30;;;;;;5113533;27;20603;-38
2022/08/27 00:07:19;;;;;;;9.10;2.38;;;21.10;93.10;;;;;;5112082;27;20329;-38
2022/08/27 00:09:46;;;;;;;5.18;2.08;;;21.10;93.00;;;;;;5112659;27;20196;-38
2022/08/27 00:12:15;;;;;;;3.67;2.00;;;21.10;92.90;;;;;;5122752;27;20263;-38
2022/08/27 00:14:45;;;;;;;4.82;2.10;;;21.00;93.00;;;;;;5114934;27;20504;-44
2022/08/27 00:17:15;;;;;;;4.35;1.95;;;21.00;93.00;;;;;;5119573;27;20233;-38
2022/08/27 00:19:44;;;;;;;7.28;2.20;;;21.00;93.00;;;;;;5118336;27;20297;-39
2022/08/27 00:22:14;;;;;;;4.00;2.17;;;21.00;93.00;;;;;;5092171;28;20218;-38
2022/08/27 00:24:43;;;;;;;3.65;2.10;;;20.90;92.90;;;;;;5115617;27;20296;-39
2022/08/27 00:27:17;;;;;;;5.65;1.70;;;20.90;93.00;;;;;;5130588;27;20224;-38
2022/08/27 00:29:47;;;;;;;4.05;2.00;;;20.90;92.90;;;;;;5117307;27;20285;-38
2022/08/27 00:32:15;;;;;;;3.47;1.85;;;20.90;93.10;;;;;;5117877;27;20288;-38
2022/08/27 00:34:52;;;;;;;5.20;2.50;;;20.90;93.00;;;;;;5118557;27;20193;-39
2022/08/27 00:37:24;;;;;;;2.75;1.98;;;20.80;93.00;;;;;;5128160;27;20213;-38
2022/08/27 00:39:52;;;;;;;4.22;1.92;;;20.80;92.90;;;;;;5111735;27;20636;-38
2022/08/27 00:42:21;;;;;;;4.93;2.25;;;20.80;93.00;;;;;;5118205;27;20305;-38
2022/08/27 00:44:51;;;;;;;3.20;1.60;;;20.80;93.00;;;;;;5125756;27;20234;-38
2022/08/27 00:47:25;;;;;;;6.25;2.03;;;20.80;93.00;;;;;;5114500;27;20798;-38
2022/08/27 00:50:01;;;;;;;4.78;2.20;;;20.80;92.90;;;;;;5112486;27;20243;-38
2022/08/27 00:52:32;;;;;;;3.40;1.98;;;20.80;93.00;;;;;;5109107;27;20781;-38
2022/08/27 00:55:16;;;;;;;4.35;2.25;;;20.80;93.00;;;;;;5113491;27;20672;-38
2022/08/27 00:57:48;;;;;;;6.40;2.17;;;20.70;92.90;;;;;;5109883;27;20198;-38
2022/08/27 01:00:18;;;;;;;5.55;1.83;;;20.70;93.00;;;;;;5113622;27;20208;-38
2022/08/27 01:02:48;;;;;;;6.60;2.03;;;20.70;92.90;;;;;;5116787;27;20202;-38
2022/08/27 01:05:20;;;;;;;3.92;1.85;;;20.70;92.90;;;;;;5117171;27;20197;-37
2022/08/27 01:07:50;;;;;;;2.80;1.80;;;20.70;93.00;;;;;;5096494;27;20316;-38
2022/08/27 01:10:20;;;;;;;4.28;2.40;;;20.70;92.90;;;;;;5119753;27;20289;-39
2022/08/27 01:12:52;;;;;;;3.33;1.73;;;20.70;93.10;;;;;;5116918;27;20225;-38
2022/08/27 01:15:25;;;;;;;4.00;2.08;;;20.70;93.10;;;;;;5115959;27;20228;-38
2022/08/27 01:17:53;;;;;;;3.10;1.98;;;20.70;93.00;;;;;;5126416;27;20194;-38
2022/08/27 01:20:35;;;;;;;3.88;2.13;;;20.70;93.00;;;;;;5110221;27;20259;-38
2022/08/27 01:23:20;;;;;;;5.18;2.03;;;20.70;93.00;;;;;;5113363;27;20804;-38
2022/08/27 01:25:48;;;;;;;5.95;1.83;;;20.70;93.10;;;;;;5110636;27;20294;-37
2022/08/27 01:28:16;;;;;;;5.60;2.03;;;20.60;93.00;;;;;;5112925;27;20197;-38
2022/08/27 01:30:49;;;;;;;4.78;2.00;;;20.60;92.90;;;;;;5101661;27;20224;-37
2022/08/27 01:33:19;;;;;;;5.72;1.88;;;20.60;92.90;;;;;;5128233;27;20243;-38
2022/08/27 01:35:49;;;;;;;5.13;2.00;;;20.60;92.90;;;;;;5115614;27;20194;-41
2022/08/27 01:38:26;;;;;;;5.50;2.05;;;20.60;92.90;;;;;;5095639;28;20202;-38
2022/08/27 01:41:00;;;;;;;4.63;1.92;;;20.50;92.90;;;;;;5121608;27;20819;-38
2022/08/27 01:43:31;;;;;;;7.10;1.85;;;20.50;93.00;;;;;;5127862;27;20210;-38
2022/08/27 01:45:58;;;;;;;3.78;1.88;;;20.50;92.90;;;;;;5117266;27;20259;-38
2022/08/27 01:48:25;;;;;;;3.58;2.17;;;20.50;93.20;;;;;;5119723;27;20259;-38
2022/08/27 01:50:55;;;;;;;7.72;2.15;;;20.60;93.00;;;;;;5120646;27;20706;-38
2022/08/27 01:53:26;;;;;;;5.63;2.38;;;20.50;93.00;;;;;;5126498;27;20254;-38
2022/08/27 01:55:57;;;;;;;4.22;2.35;;;20.50;93.00;;;;;;5120369;27;20204;-38
2022/08/27 01:58:29;;;;;;;5.00;2.20;;;20.50;93.00;;;;;;5110821;27;20246;-38
2022/08/27 02:01:04;;;;;;;4.30;2.22;;;20.50;93.00;;;;;;5118275;27;20247;-38
2022/08/27 02:03:35;;;;;;;4.20;2.10;;;20.50;93.40;;;;;;5130453;27;20701;-38
2022/08/27 02:06:06;;;;;;;5.50;2.13;;;20.50;93.00;;;;;;5115673;27;20297;-38
2022/08/27 02:08:34;;;;;;;5.40;1.95;;;20.40;92.90;;;;;;5109535;27;20206;-38
2022/08/27 02:11:04;;;;;;;4.43;2.40;;;20.40;92.90;;;;;;5108994;27;20236;-39
2022/08/27 02:13:37;;;;;;;8.02;2.28;;;20.40;93.00;;;;;;5115418;27;20216;-38
2022/08/27 02:16:10;;;;;;;5.78;2.20;;;20.40;93.00;;;;;;5125071;27;20197;-38
2022/08/27 02:18:39;;;;;;;3.72;2.15;;;20.40;93.10;;;;;;5127731;27;20288;-38
2022/08/27 02:21:11;;;;;;;3.58;1.63;;;20.40;93.00;;;;;;5106229;27;21096;-38
2022/08/27 02:23:39;;;;;;;5.75;2.08;;;20.40;93.00;;;;;;5100128;27;20205;-38
2022/08/27 02:26:09;;;;;;;5.85;2.00;;;20.40;93.00;;;;;;5107437;27;20278;-38
2022/08/27 02:28:38;;;;;;;2.63;1.67;;;20.30;93.00;;;;;;5117375;27;20259;-38
2022/08/27 02:31:06;;;;;;;4.10;2.05;;;20.30;93.00;;;;;;5117681;27;20296;-38
2022/08/27 02:33:36;;;;;;;4.55;1.90;;;20.30;93.00;;;;;;5091122;28;20344;-38
2022/08/27 02:36:03;;;;;;;5.57;2.22;;;20.30;93.00;;;;;;5107223;28;20202;-38
2022/08/27 02:38:35;;;;;;;7.07;2.22;;;20.20;93.10;;;;;;5110142;27;20213;-38
2022/08/27 02:41:05;;;;;;;3.80;1.98;;;20.20;93.00;;;;;;5105224;28;20572;-38
2022/08/27 02:43:34;;;;;;;5.43;2.33;;;20.20;93.00;;;;;;5114029;28;20210;-38
2022/08/27 02:46:05;;;;;;;6.60;2.13;;;20.20;93.10;;;;;;5109607;28;20713;-38
2022/08/27 02:48:36;;;;;;;6.32;2.72;;;20.20;93.10;;;;;;5109276;28;20209;-38
2022/08/27 02:51:08;;;;;;;3.38;2.15;;;20.20;93.10;;;;;;5110491;28;20218;-38
2022/08/27 02:53:38;;;;;;;3.65;2.08;;;20.20;93.00;;;;;;5107961;28;20229;-38
2022/08/27 02:56:06;;;;;;;5.03;2.03;;;20.20;93.00;;;;;;5110845;28;20304;-38
2022/08/27 02:58:34;;;;;;;3.70;2.28;;;20.20;93.00;;;;;;5108840;28;20803;-38
2022/08/27 03:01:04;;;;;;;4.95;2.20;;;20.20;93.00;;;;;;5126669;28;20213;-38
2022/08/27 03:03:37;;;;;;;5.15;2.58;;;20.20;93.00;;;;;;5109865;27;20551;-38
2022/08/27 03:06:09;;;;;;;3.83;2.10;;;20.10;93.40;;;;;;5120308;28;20703;-38
2022/08/27 03:08:37;;;;;;;7.43;2.55;;;20.10;93.00;;;;;;5118047;28;20229;-38
2022/08/27 03:11:22;;;;;;;3.75;2.30;;;20.10;93.00;;;;;;5090974;28;20238;-38
2022/08/27 03:13:50;;;;;;;5.90;2.42;;;20.10;92.90;;;;;;5104794;27;20636;-38
2022/08/27 03:16:18;;;;;;;5.28;2.10;;;20.00;92.90;;;;;;5121594;27;20624;-38
2022/08/27 03:18:50;;;;;;;4.70;2.50;;;20.00;92.90;;;;;;5129627;27;20201;-38
2022/08/27 03:21:22;;;;;;;6.10;2.25;;;19.90;92.90;;;;;;5111536;27;20195;-39
2022/08/27 03:23:52;;;;;;;7.50;2.55;;;19.90;93.00;;;;;;5090902;27;20640;-38
2022/08/27 03:26:23;;;;;;;7.25;2.28;;;19.90;93.10;;;;;;5122816;27;20213;-38
2022/08/27 03:28:50;;;;;;;5.68;2.28;;;19.90;93.00;;;;;;5110904;28;20210;-38
2022/08/27 03:31:25;;;;;;;4.60;2.63;;;19.80;93.10;;;;;;5112119;27;20305;-38
2022/08/27 03:33:59;;;;;;;4.70;2.28;;;19.80;93.00;;;;;;5110584;27;20217;-38
2022/08/27 03:36:29;;;;;;;6.72;2.20;;;19.80;93.00;;;;;;5094526;28;20293;-38
2022/08/27 03:38:57;;;;;;;5.65;2.53;;;19.70;93.00;;;;;;5119674;27;20748;-39
2022/08/27 03:41:25;;;;;;;5.32;2.47;;;19.70;92.90;;;;;;5099139;27;20198;-38
2022/08/27 03:44:12;;;;;;;3.92;2.13;;;19.70;93.00;;;;;;5123206;27;20320;-38
2022/08/27 03:46:53;;;;;;;5.13;2.45;;;19.70;93.10;;;;;;5119667;27;20218;-38
2022/08/27 03:49:21;;;;;;;5.57;2.88;;;19.60;93.00;;;;;;5114780;27;20320;-38
2022/08/27 03:51:51;;;;;;;6.53;2.40;;;19.60;93.00;;;;;;5098062;28;20214;-38
2022/08/27 03:54:21;;;;;;;3.10;2.10;;;19.60;93.00;;;;;;5118812;27;20208;-38
2022/08/27 03:56:51;;;;;;;8.02;2.35;;;19.50;93.00;;;;;;5096749;27;20263;-39
2022/08/27 03:59:18;;;;;;;4.28;2.42;;;19.50;93.40;;;;;;5130001;27;20286;-38
2022/08/27 04:01:46;;;;;;;4.40;2.33;;;19.50;93.00;;;;;;5106326;28;20202;-38
2022/08/27 04:04:13;;;;;;;3.25;2.60;;;19.50;93.00;;;;;;5126436;27;20734;-38
2022/08/27 04:06:42;;;;;;;4.60;2.72;;;19.50;93.00;;;;;;5099653;27;20206;-38
2022/08/27 04:09:12;;;;;;;6.43;2.88;;;19.50;93.00;;;;;;5127869;27;20220;-39
2022/08/27 04:11:42;;;;;;;4.97;2.72;;;19.50;93.00;;;;;;5095951;28;20225;-38
2022/08/27 04:14:11;;;;;;;4.43;2.35;;;19.50;93.10;;;;;;5109688;27;20236;-38
2022/08/27 04:16:59;;;;;;;4.68;2.70;;;19.50;93.10;;;;;;5130439;27;20669;-38
2022/08/27 04:19:27;;;;;;;4.05;2.40;;;19.50;93.20;;;;;;5116377;27;20209;-38
2022/08/27 04:22:05;;;;;;;4.00;2.35;;;19.40;93.00;;;;;;5111566;27;20675;-38
2022/08/27 04:24:38;;;;;;;5.63;2.60;;;19.50;93.10;;;;;;5111160;27;20627;-38
2022/08/27 04:27:06;;;;;;;5.45;2.38;;;19.50;93.10;;;;;;5102846;27;20222;-38
2022/08/27 04:29:36;;;;;;;4.68;2.90;;;19.40;93.00;;;;;;5102392;27;20198;-39
2022/08/27 04:32:10;;;;;;;7.90;3.05;;;19.40;93.10;;;;;;5091154;28;20201;-38
2022/08/27 04:34:40;;;;;;;4.85;2.58;;;19.40;93.00;;;;;;5120061;27;20295;-38
2022/08/27 04:37:10;;;;;;;5.15;2.45;;;19.40;93.10;;;;;;5114646;27;20215;-38
2022/08/27 04:39:38;;;;;;;5.93;2.92;;;19.30;93.10;;;;;;5111342;27;20206;-38
2022/08/27 04:42:05;;;;;;;6.93;2.75;;;19.30;93.40;;;;;;5099302;27;20205;-38
2022/08/27 04:44:32;;;;;;;5.93;2.70;;;19.30;93.60;;;;;;5113322;27;20297;-38
2022/08/27 04:47:02;;;;;;;4.05;2.28;;;19.30;93.10;;;;;;5109182;28;20246;-39
2022/08/27 04:49:33;;;;;;;3.80;2.60;;;19.30;93.10;;;;;;5112011;27;20217;-38
2022/08/27 04:52:02;;;;;;;3.42;2.53;;;19.30;93.10;;;;;;5115626;27;20252;-38
2022/08/27 04:54:34;;;;;;;7.03;2.70;;;19.30;93.10;;;;;;5122197;27;20256;-39
2022/08/27 04:57:06;;;;;;;5.75;2.13;;;19.20;93.20;;;;;;5112583;27;20217;-38
2022/08/27 04:59:37;;;;;;;5.47;2.55;;;19.20;93.10;;;;;;5102305;27;20233;-38
2022/08/27 05:02:10;;;;;;;6.32;2.53;;;19.20;93.20;;;;;;5118669;27;20193;-38
2022/08/27 05:04:39;;;;;;;7.45;2.80;;;19.20;93.20;;;;;;5117903;27;20262;-38
2022/08/27 05:07:09;;;;;;;5.72;2.72;;;19.20;93.50;;;;;;5121739;27;20213;-38
2022/08/27 05:09:37;;;;;;;3.33;2.47;;;19.20;93.20;;;;;;5116994;27;20197;-38
2022/08/27 05:12:07;;;;;;;5.88;2.30;;;19.20;93.20;;;;;;5116342;27;20275;-38
2022/08/27 05:14:37;;;;;;;5.13;2.58;;;19.10;93.30;;;;;;5111044;27;20194;-38
2022/08/27 05:17:06;;;;;;;5.00;2.70;;;19.10;93.30;;;;;;5090917;27;20213;-39
2022/08/27 05:19:33;;;;;;;4.25;2.67;;;19.10;93.30;;;;;;5095448;28;20204;-38
2022/08/27 05:22:01;;;;;;;4.60;2.70;;;19.10;93.40;;;;;;5113943;27;20206;-38
2022/08/27 05:24:31;;;;;;;5.28;2.55;;;19.10;93.50;;;;;;5117255;27;20211;-38
2022/08/27 05:27:03;;;;;;;5.78;3.40;;;19.10;93.40;;;;;;5116509;27;20259;-38
2022/08/27 05:29:30;;;;;;;4.47;2.60;;;19.10;93.60;;;;;;5096694;27;20202;-38
2022/08/27 05:31:57;;;;;;;6.68;2.78;;;19.10;93.40;;;;;;5120358;27;20267;-38
2022/08/27 05:34:25;;;;;;;4.63;2.50;;;19.10;93.40;;;;;;5112751;27;20660;-38
2022/08/27 05:36:53;;;;;;;4.78;2.60;;;19.00;93.40;;;;;;5103935;27;20288;-38
2022/08/27 05:39:25;;;;;;;5.15;2.40;;;19.10;93.60;;;;;;5109148;27;20684;-39
2022/08/27 05:41:58;;;;;;;5.45;2.60;;;19.00;93.50;;;;;;5108665;27;20781;-39
2022/08/27 05:44:25;;;;;;;5.30;2.60;;;19.00;93.60;;;;;;5120297;27;20192;-39
2022/08/27 05:47:09;;;;;;;3.30;2.50;;;19.00;93.50;;;;;;5127127;27;20209;-38
2022/08/27 05:49:36;;;;;;;6.72;2.92;;;19.00;93.60;;;;;;5101706;27;20250;-38
2022/08/27 05:52:08;;;;;;;8.63;3.00;;;18.90;93.60;;;;;;5103363;27;20298;-39
2022/08/27 05:54:38;;;;;;;5.78;2.25;;;18.90;93.60;;;;;;5119356;27;20695;-39
2022/08/27 05:57:06;;;;;;;5.63;2.63;;;18.90;93.60;;;;;;5109729;27;20216;-38
2022/08/27 06:02:21;;;;;;;4.68;2.35;;;19.00;93.70;;;;;;5120766;28;20238;-38
2022/08/27 06:04:53;;;;;;;4.80;2.33;;;19.00;93.70;;;;;;5110052;27;20212;-38
2022/08/27 06:07:20;;;;;;;4.97;2.40;;;19.00;93.70;;;;;;5114556;28;20312;-38
2022/08/27 06:09:50;;;;;;;5.32;2.42;;;19.10;93.80;;;;;;5114933;28;20222;-38
2022/08/27 06:12:20;;;;;;;5.85;2.63;;;19.10;93.80;;;;;;5107540;27;20289;-39
2022/08/27 06:14:54;;;;;;;6.05;2.70;;;19.10;93.70;;;;;;5101025;28;20209;-38
2022/08/27 06:17:24;;;;;;;8.50;2.75;;;19.20;93.80;;;;;;5119549;28;20271;-38
2022/08/27 06:19:54;;;;;;;6.82;2.70;;;19.20;93.80;;;;;;5091103;28;20255;-38
2022/08/27 06:22:26;;;;;;;5.50;2.78;;;19.30;93.80;;;;;;5114937;28;20218;-38
2022/08/27 06:24:53;;;;;;;5.25;3.00;;;19.20;93.90;;;;;;5123390;27;20213;-38
2022/08/27 06:27:20;;;;;;;4.22;2.60;;;19.30;93.90;;;;;;5125134;27;20325;-38
2022/08/27 06:29:48;;;;;;;6.75;2.33;;;19.30;93.80;;;;;;5115543;27;20619;-38
2022/08/27 06:32:19;;;;;;;3.85;2.78;;;19.30;93.80;;;;;;5122646;27;20274;-38
2022/08/27 06:34:47;;;;;;;5.07;2.40;;;19.40;94.00;;;;;;5122468;27;20802;-38
2022/08/27 06:37:19;;;;;;;4.68;2.50;;;19.40;94.00;;;;;;5131819;27;20197;-38
2022/08/27 06:39:50;;;;;;;5.22;2.17;;;19.40;94.10;;;;;;5121026;27;20250;-38
2022/08/27 06:42:17;;;;;;;6.72;2.58;;;19.40;94.00;;;;;;5124698;28;20205;-38
2022/08/27 06:44:47;;;;;;;7.38;2.92;;;19.50;94.00;;;;;;5124320;28;20633;-39
2022/08/27 06:47:15;;;;;;;4.35;2.20;;;19.50;94.10;;;;;;5121535;27;20300;-38
2022/08/27 06:49:51;;;;;;;6.55;2.00;;;19.50;94.10;;;;;;5122079;27;20500;-38
2022/08/27 06:52:19;;;;;;;3.88;2.35;;;19.60;94.20;;;;;;5125606;28;20190;-38
2022/08/27 06:54:46;;;;;;;5.90;2.35;;;19.60;94.30;;;;;;5129649;27;21135;-38
2022/08/27 06:57:13;;;;;;;5.43;2.20;;;19.60;94.20;;;;;;5139309;27;20262;-38
2022/08/27 06:59:41;;;;;;;5.13;2.00;;;19.70;94.30;;;;;;5079698;28;1086699;-38
2022/08/27 07:02:11;;;;;;;6.53;2.65;;;19.70;94.30;;;;;;5117832;28;20528;-38
2022/08/27 07:04:40;;;;;;;4.70;2.00;;;19.70;94.50;;;;;;5126135;27;20675;-38
2022/08/27 07:07:12;;;;;;;5.72;2.35;;;19.70;94.30;;;;;;5141732;27;20205;-37
2022/08/27 07:09:42;;;;;;;5.07;2.10;;;19.80;94.30;;;;;;5114927;27;20551;-37
2022/08/27 07:12:11;;;;;;;5.80;1.98;;;19.90;94.40;;;;;;5089164;28;20610;-38
2022/08/27 07:14:41;;;;;;;4.00;2.20;;;19.90;94.40;;;;;;5123106;28;20232;-38
2022/08/27 07:17:09;;;;;;;4.32;2.03;;;20.00;94.60;;;;;;5119023;27;20645;-37
2022/08/27 07:19:45;;;;;;;6.03;2.30;;;20.00;94.50;;;;;;5121077;28;20648;-37
2022/08/27 07:22:17;;;;;;;4.60;2.40;;;20.00;94.40;;;;;;5098000;28;20202;-38
2022/08/27 07:24:50;;;;;;;3.78;2.00;;;20.00;94.50;;;;;;5106932;27;20202;-38
2022/08/27 07:27:20;;;;;;;3.92;2.05;;;20.10;94.50;;;;;;5118202;28;20193;-37
2022/08/27 07:29:47;;;;;;;4.90;2.10;;;20.10;94.60;;;;;;5127489;27;20758;-38
2022/08/27 07:32:17;;;;;;;3.72;2.20;;;20.10;94.60;;;;;;5107879;27;20198;-38
2022/08/27 07:34:46;;;;;;;5.78;2.40;;;20.10;94.70;;;;;;5092356;28;20202;-38
2022/08/27 07:37:15;;;;;;;5.18;2.47;;;20.20;94.70;;;;;;5126714;27;20301;-39
2022/08/27 07:39:43;;;;;;;5.68;2.50;;;20.20;94.80;;;;;;5117731;27;20221;-38
2022/08/27 07:44:58;;;;;;;6.10;2.30;;;20.20;94.70;;;;;;5128135;28;20229;-37
2022/08/27 07:47:30;;;;;;;7.95;2.60;;;20.20;94.70;;;;;;5128835;28;20201;-38
2022/08/27 07:49:58;;;;;;;7.43;2.33;;;20.20;94.70;;;;;;5127132;27;20616;-44
2022/08/27 07:52:28;;;;;;;5.68;2.53;;;20.30;94.70;;;;;;5122925;27;20205;-38
2022/08/27 07:55:00;;;;;;;7.22;2.42;;;20.30;95.10;;;;;;5103119;28;20201;-39
2022/08/27 07:57:34;;;;;;;6.25;2.20;;;20.30;94.80;;;;;;5122148;27;20198;-37
2022/08/27 08:00:03;;;;;;;6.07;2.22;;;20.30;94.80;;;;;;5100805;28;20664;-38
2022/08/27 08:02:30;;;;;;;6.05;2.28;;;20.30;94.80;;;;;;5110210;28;20198;-38
2022/08/27 08:05:00;;;;;;;4.10;1.77;;;20.30;94.80;;;;;;5143830;27;20208;-37
2022/08/27 08:07:30;;;;;;;4.93;1.95;;;20.40;94.90;;;;;;5146781;27;20732;-38
2022/08/27 08:09:58;;;;;;;4.18;1.83;;;20.40;94.90;;;;;;5126063;27;20218;-38
2022/08/27 08:12:25;;;;;;;4.30;2.30;;;20.50;94.80;;;;;;5126969;27;20205;-38
2022/08/27 08:14:56;;;;;;;5.65;1.98;;;20.50;94.90;;;;;;5127269;27;20289;-38
2022/08/27 08:17:24;;;;;;;4.38;2.15;;;20.50;94.80;;;;;;5111769;27;20206;-37
2022/08/27 08:19:52;;;;;;;3.10;1.77;;;20.50;94.90;;;;;;5096610;27;20641;-38
2022/08/27 08:22:39;;;;;;;4.38;1.88;;;20.50;95.00;;;;;;5108669;27;20209;-37
2022/08/27 08:25:07;;;;;;;6.28;2.00;;;20.50;95.00;;;;;;5100022;27;20205;-38
2022/08/27 08:27:40;;;;;;;3.33;1.90;;;20.50;94.90;;;;;;5124128;27;20209;-38
2022/08/27 08:30:11;;;;;;;6.32;1.90;;;20.50;94.90;;;;;;5107583;27;20205;-37
2022/08/27 08:32:44;;;;;;;3.70;1.98;;;20.50;95.00;;;;;;5110561;27;20197;-37
2022/08/27 08:35:12;;;;;;;5.72;2.30;;;20.50;95.00;;;;;;5112617;27;20274;-38
2022/08/27 08:37:42;;;;;;;5.68;1.88;;;20.60;95.20;;;;;;5127723;27;20276;-37
2022/08/27 08:40:18;;;;;;;2.95;1.40;;;20.60;95.20;;;;;;5144135;27;20235;-37
2022/08/27 08:42:53;;;;;;;6.80;1.73;;;20.70;95.30;;;;;;5115571;27;20202;-37
2022/08/27 08:45:28;;;;;;;4.35;1.70;;;20.70;95.30;;;;;;5122301;27;20282;-37
2022/08/27 08:48:08;;;;;;;4.93;1.92;;;20.80;95.20;;;;;;5127965;27;20280;-37
2022/08/27 08:50:49;;;;;;;6.20;1.25;;;20.90;95.20;;;;;;5126158;27;20228;-37
2022/08/27 08:53:34;;;;;;;8.93;1.95;;;20.90;95.20;;;;;;5118162;27;20711;-37
2022/08/27 08:56:07;;;;;;;3.50;1.85;;;20.90;95.20;;;;;;5125182;27;20242;-37
2022/08/27 08:58:39;;;;;;;6.10;1.60;;;20.90;95.00;;;;;;5135186;27;20233;-37
2022/08/27 09:01:08;;;;;;;5.57;1.58;;;21.00;95.00;;;;;;5126098;27;20203;-37
2022/08/27 09:03:40;;;;;;;3.75;1.40;;;21.00;94.80;;;;;;5116511;27;20586;-37
2022/08/27 09:06:24;;;;;;;5.80;1.45;;;21.00;94.60;;;;;;5094367;28;20650;-37
2022/08/27 09:08:51;;;;;;;4.70;1.60;;;21.00;94.50;;;;;;5122049;27;20216;-38
2022/08/27 09:11:49;;;;;;;4.13;1.55;;;21.00;94.50;;;;;;5108889;28;20558;-38
2022/08/27 09:14:42;;;;;;;2.67;1.25;;;21.10;94.80;;;;;;5121765;27;20977;-38
2022/08/27 09:17:12;;;;;;;10.20;2.00;;;21.10;94.80;;;;;;5110790;27;20206;-37
2022/08/27 09:19:42;;;;;;;4.53;1.40;;;21.10;94.80;;;;;;5116934;27;20222;-37
2022/08/27 09:22:42;;;;;;;4.80;1.50;;;21.20;94.60;;;;;;5134804;27;20208;-38
2022/08/27 09:25:27;;;;;;;2.45;1.38;;;21.30;94.80;;;;;;5121278;27;20221;-39
2022/08/27 09:27:57;;;;;;;3.47;1.55;;;21.30;95.00;;;;;;5113473;27;20683;-38
2022/08/27 09:30:27;;;;;;;3.80;1.25;;;21.40;95.10;;;;;;5128736;27;20633;-37
2022/08/27 09:33:03;;;;;;;5.20;1.50;;;21.50;94.70;;;;;;5120566;27;20240;-37
2022/08/27 09:35:41;;;;;;;4.72;1.35;;;21.60;94.60;;;;;;5099590;27;20205;-36
2022/08/27 09:38:25;;;;;;;3.00;1.00;;;21.60;93.30;;;;;;5123020;27;20496;-38
2022/08/27 09:40:54;;;;;;;4.32;1.55;;;21.70;94.50;;;;;;5143699;27;20262;-37
2022/08/27 09:43:28;;;;;;;4.88;1.35;;;21.80;94.30;;;;;;5112529;27;20205;-37
2022/08/27 09:45:58;;;;;;;3.00;1.52;;;21.80;94.30;;;;;;5111205;27;20194;-37
2022/08/27 09:48:32;;;;;;;4.32;1.20;;;21.90;93.80;;;;;;5126980;27;20993;-37
2022/08/27 09:51:12;;;;;;;2.83;1.33;;;22.00;94.30;;;;;;5120392;27;20663;-38
2022/08/27 09:54:00;;;;;;;5.93;2.25;;;22.10;93.20;;;;;;5117294;27;20212;-38
2022/08/27 09:56:39;;;;;;;4.65;1.50;;;22.20;93.90;;;;;;5107434;28;20301;-37
2022/08/27 09:59:21;;;;;;;4.28;1.90;;;22.20;93.80;;;;;;5123771;27;20692;-38
2022/08/27 10:02:13;;;;;;;5.35;2.15;;;22.20;93.90;;;;;;5108263;27;20217;-39
2022/08/27 10:04:47;;;;;;;3.47;1.27;;;22.30;93.60;;;;;;5134126;27;20192;-37
2022/08/27 10:07:28;;;;;;;4.07;1.20;;;22.30;93.60;;;;;;5126188;27;20213;-38
2022/08/27 10:10:02;;;;;;;1.98;1.20;;;22.30;93.50;;;;;;5111866;27;20214;-38
2022/08/27 10:12:50;;;;;;;3.47;1.40;;;22.30;93.30;;;;;;5119161;27;20225;-37
2022/08/27 10:15:17;;;;;;;4.70;1.30;;;22.30;93.50;;;;;;5122410;27;20637;-37
2022/08/27 10:18:06;;;;;;;4.88;1.25;;;22.30;93.30;;;;;;5112508;27;20267;-37
2022/08/27 10:20:59;;;;;;;3.28;1.20;;;22.30;93.00;;;;;;5107166;27;20281;-37
2022/08/27 10:24:04;;;;;;;3.90;1.13;;;22.30;93.40;;;;;;5115000;27;20652;-38
2022/08/27 10:26:42;;;;;;;2.95;1.50;;;22.30;93.10;;;;;;5117003;27;20703;-37
2022/08/27 10:29:56;;;;;;;1.80;1.10;;;22.30;92.30;;;;;;5097302;27;20221;-37
2022/08/27 10:32:32;;;;;;;4.63;1.50;;;22.30;92.30;;;;;;5126824;27;20648;-38
2022/08/27 10:35:42;;;;;;;3.40;1.38;;;22.30;93.20;;;;;;5125359;27;20269;-37
2022/08/27 10:38:28;;;;;;;6.47;1.70;;;22.20;93.30;;;;;;5038934;28;20695;-37
2022/08/27 10:41:10;;;;;;;2.58;1.15;;;22.30;93.30;;;;;;5108093;27;20205;-38
2022/08/27 10:43:51;;;;;;;2.33;1.08;;;22.40;93.30;;;;;;5114631;27;20190;-38
2022/08/27 10:46:37;;;;;;;5.43;1.60;;;22.30;93.30;;;;;;5099888;28;20245;-38
2022/08/27 10:49:27;;;;;;;4.07;1.20;;;22.30;93.10;;;;;;5101335;28;20221;-37
2022/08/27 10:52:17;;;;;;;2.22;1.15;;;22.40;93.20;;;;;;5119556;28;20713;-37
2022/08/27 10:54:51;;;;;;;4.63;1.48;;;22.40;93.40;;;;;;5116940;28;20217;-38
2022/08/27 10:57:37;;;;;;;4.68;1.40;;;22.40;93.10;;;;;;5106669;28;20300;-37
2022/08/27 11:00:24;;;;;;;4.68;1.25;;;22.30;93.30;;;;;;5076683;28;20207;-39
2022/08/27 11:03:24;;;;;;;3.35;1.42;;;22.40;93.10;;;;;;5074323;28;20242;-37
2022/08/27 11:05:52;;;;;;;3.67;1.40;;;22.40;92.60;;;;;;5067972;28;20216;-37
2022/08/27 11:08:37;;;;;;;2.42;1.17;;;22.50;93.20;;;;;;5084168;28;20199;-37
2022/08/27 11:11:10;;;;;;;2.90;1.30;;;22.50;93.40;;;;;;5086080;28;20202;-37
2022/08/27 11:13:58;;;;;;;5.13;2.25;;;22.50;93.50;;;;;;5084365;28;20684;-37
2022/08/27 11:16:42;;;;;;;4.10;1.48;;;22.60;93.20;;;;;;5067125;28;20344;-37
2022/08/27 11:19:26;;;;;;;2.65;1.38;;;22.70;93.40;;;;;;5072810;28;20275;-38
2022/08/27 11:22:15;;;;;;;2.10;1.35;;;22.80;93.50;;;;;;5072529;28;20590;-37
2022/08/27 11:24:56;;;;;;;2.40;1.73;;;22.90;93.60;;;;;;5089128;28;20208;-37
2022/08/27 11:27:27;;;;;;;2.95;1.83;;;22.90;93.10;;;;;;5083079;28;20206;-37
2022/08/27 11:30:25;;;;;;;3.45;1.70;;;22.90;92.80;;;;;;5066621;28;20795;-37
2022/08/27 11:33:13;;;;;;;4.30;1.30;;;23.00;92.50;;;;;;5066959;28;20243;-37
2022/08/27 11:36:12;;;;;;;4.60;1.50;;;23.00;92.60;;;;;;5072673;28;20207;-37
2022/08/27 11:39:11;;;;;;;4.72;1.60;;;23.00;92.90;;;;;;5018454;28;20222;-36
2022/08/27 11:42:11;;;;;;;3.25;1.65;;;23.00;92.60;;;;;;5095402;28;20207;-37
2022/08/27 11:44:45;;;;;;;5.25;1.88;;;23.00;92.90;;;;;;5076765;28;20726;-38
2022/08/27 11:47:23;;;;;;;3.97;1.40;;;23.20;92.70;;;;;;5069927;28;20222;-37
2022/08/27 11:49:57;;;;;;;6.10;1.55;;;23.20;93.10;;;;;;5070027;28;20227;-36
2022/08/27 11:52:27;;;;;;;5.28;1.70;;;23.40;92.60;;;;;;5081486;28;20222;-37
2022/08/27 11:55:20;;;;;;;2.22;1.35;;;23.40;92.70;;;;;;5089614;28;20210;-37
2022/08/27 11:58:04;;;;;;;5.70;2.05;;;23.40;92.90;;;;;;5092059;27;20288;-37
2022/08/27 12:00:39;;;;;;;3.63;1.55;;;23.30;92.40;;;;;;5102107;27;20611;-38
2022/08/27 12:03:28;;;;;;;4.07;1.60;;;23.30;92.60;;;;;;5112109;27;20697;-38
2022/08/27 12:05:55;;;;;;;3.50;1.75;;;23.40;92.70;;;;;;5120930;27;20206;-37
2022/08/27 12:08:25;;;;;;;3.63;1.42;;;23.30;93.00;;;;;;5126986;27;20198;-37
2022/08/27 12:10:55;;;;;;;5.78;1.80;;;23.40;92.80;;;;;;5090984;27;20229;-37
2022/08/27 12:13:48;;;;;;;4.60;1.95;;;23.40;93.00;;;;;;5113415;27;20214;-37
2022/08/27 12:16:30;;;;;;;3.80;1.80;;;23.50;93.10;;;;;;5109436;27;20294;-37
2022/08/27 12:19:24;;;;;;;5.85;2.13;;;23.40;93.20;;;;;;5116518;27;20205;-36
2022/08/27 12:22:16;;;;;;;4.97;1.83;;;23.50;93.00;;;;;;5121157;27;20474;-38
2022/08/27 12:25:00;;;;;;;10.32;2.03;;;23.60;93.00;;;;;;5124950;27;20208;-37
2022/08/27 12:27:31;;;;;;;3.83;1.90;;;23.60;93.00;;;;;;5114376;27;20205;-37
2022/08/27 12:30:05;;;;;;;2.92;1.60;;;23.70;93.10;;;;;;5136701;27;20225;-38
2022/08/27 12:32:38;;;;;;;4.07;2.17;;;23.70;93.00;;;;;;5128009;27;20217;-38
2022/08/27 12:35:20;;;;;;;5.32;1.50;;;23.70;93.70;;;;;;5110758;27;20194;-38
2022/08/27 12:37:53;;;;;;;2.78;1.30;;;23.70;92.90;;;;;;5130551;27;20198;-37
2022/08/27 12:40:38;;;;;;;4.43;1.83;;;23.70;93.20;;;;;;5133032;27;20200;-38
2022/08/27 12:43:07;;;;;;;6.45;2.00;;;23.70;93.00;;;;;;5122543;27;20700;-36
2022/08/27 12:45:51;;;;;;;3.75;1.80;;;23.80;93.00;;;;;;5112100;27;20625;-36
2022/08/27 12:48:24;;;;;;;3.05;1.48;;;23.80;93.40;;;;;;5125590;27;20328;-36
2022/08/27 12:50:58;;;;;;;4.30;1.60;;;23.90;93.50;;;;;;5118777;27;20304;-36
2022/08/27 12:54:08;;;;;;;4.63;2.00;;;23.90;93.50;;;;;;5147429;27;20240;-36
2022/08/27 12:57:03;;;;;;;5.97;1.63;;;24.00;93.20;;;;;;5149262;27;20242;-38
2022/08/27 13:00:09;;;;;;;3.67;1.65;;;24.00;93.20;;;;;;5110318;27;20261;-38
2022/08/27 13:02:51;;;;;;;5.05;1.63;;;23.90;93.30;;;;;;5126055;27;20955;-38
2022/08/27 13:05:22;;;;;;;3.92;1.85;;;24.00;93.00;;;;;;5135712;27;20198;-38
2022/08/27 13:07:51;;;;;;;2.63;1.50;;;24.00;93.60;;;;;;5129769;27;20572;-38
2022/08/27 13:10:30;;;;;;;4.00;1.70;;;24.10;93.80;;;;;;5107860;28;20785;-38
2022/08/27 13:13:05;;;;;;;4.70;1.95;;;24.30;93.90;;;;;;5108630;28;20576;-38
2022/08/27 13:15:33;;;;;;;2.70;1.40;;;24.40;92.80;;;;;;5124198;27;20301;-38
2022/08/27 13:18:06;;;;;;;3.78;1.60;;;24.40;93.60;;;;;;5100010;27;20284;-38
2022/08/27 13:20:37;;;;;;;2.92;1.33;;;24.50;93.50;;;;;;5125171;27;20211;-37
2022/08/27 13:23:17;;;;;;;2.70;1.42;;;24.60;93.60;;;;;;5110101;27;20221;-39
2022/08/27 13:25:59;;;;;;;3.08;1.80;;;24.60;93.00;;;;;;5148156;27;20249;-38
2022/08/27 13:28:29;;;;;;;4.97;1.55;;;24.70;93.00;;;;;;5128541;27;20240;-38